Airfield :
LOGIN :

Register | Disclaimer

   EN    FR    IT 

 










Legend :    VFR   Marginal VFR   IFR   Intensive IFR   Very Intensive IFR
Visi :
Ceiling :
>= 8 km
>= 3000ft
5 to 8 km
1000 to 3000 ft
1500m to 5 km
500 to 1000 ft
800 to 1500m
200 to 500 ft
< 800m
< 200 ft
Symbols :   Thunderstorms  Fog  Heavy snow  Heavy precipitations  Wind > 20 kt
SIGMETs :     Misc.  Thunderstorms  Icing  Turbulence  Mountain Waves  Volcanic Ashes






- Airport Elevation : 580 ft


LFOA - Avord

CURRENT METAR :
  • 271730Z AUTO 30014KT 270V330 9999 SCT043 BKN050 BKN060 08/01 Q1011 NOSIG

EXPIRED METARs :
  • 271700Z AUTO 32017G29KT 9999 FEW037 SCT043 BKN054 08/00 Q1010 BECMG 27005KT
  • 271630Z AUTO 32019KT 9999 FEW037 SCT047 BKN058 09/01 Q1009 BECMG 27005KT
  • 271600Z AUTO 32019KT 300V010 9999 FEW016 BKN041 BKN052 10/03 Q1007 TEMPO 4000 RA BECMG 27005KT
  • 271530Z AUTO 32022G34KT 9999 BKN041 BKN049 BKN056 10/02 Q1006 TEMPO 4000 RA BECMG 27005KT
  • 271500Z AUTO 31025G38KT 9999 SCT036 SCT049 BKN060 11/03 Q1004 BECMG 4000 RA

TAF TAF LFOA
Valid from the 27 at 15:00 until the 28 at 15:00 UTC


271400Z 2715/2815 30025G42KT 4000 RA BKN020
BECMG 2717/2720 27005KT CAVOK
PROB30
TEMPO 2800/2806 3000 BR
BECMG 2808/2810 16010KT
TEMPO 2812/2815 4000 RA BKN010 OVC020



MET'MAP, your aeronautical weather chart ! - Copyright ORBIFLY December 2007 - Disclaimer

ORBIFLY MET'MAP TEAM :

Programming & Development : Alexandra Zaïnal
Concept & original design : Baudouin d'Aumeries
Assistance for programming : Marc-Olivier Méhu
Technical & hardware support : Manuel Goepfert

Contact : metmap@orbifly.com




SOURCES & CREDITS :

   NOAA